Time;durP1;ratioP1;P1;durP2;ratioP2;P2;SDS_P1;SDS_P2;PMS_P1;PMS_P2;Temp;Humidity;BMP_temperature;BMP_pressure;BME280_temperature;BME280_humidity;BME280_pressure;Samples;Min_cycle;Max_cycle;Signal;HPM_P1;HPM_P2
2022/01/04 00:00:54;;;;;;;7.55;2.67;;;;;;;8.78;100.00;99818.34;5073244;28;20075;-71
2022/01/04 00:03:25;;;;;;;7.07;3.03;;;;;;;8.75;100.00;99814.09;5073273;28;20037;-71
2022/01/04 00:05:53;;;;;;;6.85;3.10;;;;;;;8.73;100.00;99817.78;5073125;28;20098;-70
2022/01/04 00:08:23;;;;;;;5.90;3.03;;;;;;;8.60;100.00;99815.88;5073033;28;20508;-70
2022/01/04 00:10:54;;;;;;;8.05;3.42;;;;;;;8.58;100.00;99825.72;5073211;28;20465;-71
2022/01/04 00:13:23;;;;;;;9.38;4.63;;;;;;;8.59;100.00;99827.44;5073507;28;20090;-70
2022/01/04 00:15:53;;;;;;;11.68;5.15;;;;;;;8.45;100.00;99824.72;5072659;28;20044;-70
2022/01/04 00:18:22;;;;;;;14.13;5.78;;;;;;;8.31;100.00;99827.31;5072964;28;20044;-70
2022/01/04 00:20:50;;;;;;;10.20;5.43;;;;;;;8.31;100.00;99830.81;5072929;28;20123;-71
2022/01/04 00:23:19;;;;;;;14.00;6.70;;;;;;;8.25;100.00;99839.13;5073136;28;20048;-70
2022/01/04 00:25:49;;;;;;;14.30;7.50;;;;;;;8.23;100.00;99829.53;5072824;28;20040;-70
2022/01/04 00:28:17;;;;;;;15.57;8.93;;;;;;;8.23;100.00;99832.19;5073104;28;20072;-70
2022/01/04 00:30:46;;;;;;;17.38;9.38;;;;;;;8.21;100.00;99831.44;5073310;28;20044;-71
2022/01/04 00:33:17;;;;;;;19.05;10.32;;;;;;;8.19;100.00;99833.31;5072516;28;20044;-71
2022/01/04 00:35:47;;;;;;;21.05;10.48;;;;;;;8.21;100.00;99831.44;5073258;28;20044;-71
2022/01/04 00:38:16;;;;;;;20.25;10.98;;;;;;;8.13;100.00;99831.00;5072989;28;20048;-71
2022/01/04 00:40:44;;;;;;;18.45;10.77;;;;;;;8.15;100.00;99834.44;5073021;28;20098;-71
2022/01/04 00:43:13;;;;;;;20.73;11.48;;;;;;;8.20;100.00;99829.69;5072679;28;20378;-71
2022/01/04 00:45:42;;;;;;;22.27;11.27;;;;;;;8.19;100.00;99828.84;5073054;28;20041;-71
2022/01/04 00:50:56;;;;;;;19.40;11.43;;;;;;;8.09;100.00;99816.16;5072436;28;20052;-71
2022/01/04 00:53:24;;;;;;;22.45;12.00;;;;;;;8.20;100.00;99808.44;5072996;28;20048;-71
2022/01/04 00:55:52;;;;;;;21.10;13.30;;;;;;;8.07;100.00;99818.06;5072637;28;20073;-72
2022/01/04 00:58:22;;;;;;;22.30;13.05;;;;;;;8.08;100.00;99819.78;5072502;28;20393;-68
2022/01/04 01:00:50;;;;;;;21.70;12.70;;;;;;;8.10;100.00;99823.19;5072819;28;20040;-70
2022/01/04 01:03:18;;;;;;;22.40;13.30;;;;;;;7.97;100.00;99817.72;5072420;28;20436;-70
2022/01/04 01:05:47;;;;;;;23.88;13.45;;;;;;;7.95;100.00;99825.78;5075996;28;20533;-70
2022/01/04 01:08:16;;;;;;;22.00;13.32;;;;;;;7.95;100.00;99817.81;5076429;28;20040;-70
2022/01/04 01:10:47;;;;;;;23.42;13.18;;;;;;;7.92;100.00;99815.34;5076392;28;20131;-70
2022/01/04 01:13:17;;;;;;;21.98;13.10;;;;;;;7.87;100.00;99808.56;5076313;28;20063;-70
2022/01/04 01:15:47;;;;;;;20.55;12.48;;;;;;;8.04;100.00;99824.41;5076662;28;20048;-70
2022/01/04 01:18:18;;;;;;;22.63;13.48;;;;;;;8.04;100.00;99813.78;5076030;28;20041;-70
2022/01/04 01:20:48;;;;;;;21.70;13.50;;;;;;;7.87;100.00;99812.06;5076588;28;20077;-70
2022/01/04 01:23:17;;;;;;;22.00;12.80;;;;;;;7.83;100.00;99807.91;5076435;28;20107;-70
2022/01/04 01:25:45;;;;;;;21.25;12.93;;;;;;;7.82;100.00;99803.53;5076341;28;20044;-70
2022/01/04 01:28:14;;;;;;;21.45;13.27;;;;;;;7.91;100.00;99787.09;5074979;28;20899;-70
2022/01/04 01:30:44;;;;;;;20.67;12.95;;;;;;;7.83;100.00;99791.97;5076056;28;20049;-70
2022/01/04 01:33:14;;;;;;;23.48;12.68;;;;;;;7.87;100.00;99788.19;5075980;28;20037;-70
2022/01/04 01:35:46;;;;;;;22.98;13.13;;;;;;;7.82;100.00;99787.59;5076036;28;20482;-70
2022/01/04 01:38:16;;;;;;;22.33;13.10;;;;;;;7.77;100.00;99773.72;5075885;28;20461;-70
2022/01/04 01:40:49;;;;;;;21.67;13.45;;;;;;;7.80;100.00;99768.22;5076324;28;20040;-70
2022/01/04 01:43:17;;;;;;;23.42;14.15;;;;;;;7.73;100.00;99777.50;5075847;28;20102;-71
2022/01/04 01:45:47;;;;;;;21.45;13.88;;;;;;;7.81;100.00;99774.38;5075901;28;20041;-71
2022/01/04 01:48:17;;;;;;;22.45;13.10;;;;;;;7.77;100.00;99768.41;5075436;28;20060;-70
2022/01/04 01:50:45;;;;;;;23.30;14.00;;;;;;;7.76;100.00;99756.06;5075987;28;20481;-70
2022/01/04 01:53:13;;;;;;;23.90;14.75;;;;;;;7.69;100.00;99739.63;5075326;28;20044;-70
2022/01/04 01:55:41;;;;;;;24.85;14.55;;;;;;;7.81;100.00;99730.09;5075536;28;20477;-70
2022/01/04 01:58:09;;;;;;;24.00;14.07;;;;;;;7.85;100.00;99722.84;5075123;28;20060;-71
2022/01/04 02:00:38;;;;;;;23.30;13.45;;;;;;;7.83;100.00;99725.59;5075891;28;20040;-70
2022/01/04 02:03:07;;;;;;;21.95;13.88;;;;;;;7.81;100.00;99722.13;5075363;28;20041;-71
2022/01/04 02:05:37;;;;;;;25.08;14.30;;;;;;;7.72;100.00;99720.88;5075699;28;20044;-69
2022/01/04 02:08:06;;;;;;;24.90;14.35;;;;;;;7.76;100.00;99708.28;5075352;28;20044;-70
2022/01/04 02:10:34;;;;;;;25.35;14.80;;;;;;;7.82;100.00;99689.34;5074276;28;20094;-67
2022/01/04 02:13:03;;;;;;;22.45;13.82;;;;;;;7.70;100.00;99693.53;5075516;28;20040;-70
2022/01/04 02:15:33;;;;;;;23.77;14.52;;;;;;;7.64;100.00;99701.03;5075095;28;20060;-70
2022/01/04 02:18:02;;;;;;;27.33;15.00;;;;;;;7.59;100.00;99684.50;5075143;28;20123;-70
2022/01/04 02:20:32;;;;;;;25.60;15.57;;;;;;;7.55;100.00;99690.94;5075106;28;20055;-70
2022/01/04 02:23:00;;;;;;;25.85;15.38;;;;;;;7.47;100.00;99686.91;5075095;28;20049;-70
2022/01/04 02:25:28;;;;;;;26.70;15.13;;;;;;;7.49;100.00;99672.69;5075483;28;20037;-69
2022/01/04 02:27:57;;;;;;;27.70;16.48;;;;;;;7.43;100.00;99674.75;5074002;28;20052;-69
2022/01/04 02:30:25;;;;;;;24.77;14.65;;;;;;;7.50;100.00;99669.09;5075297;28;20098;-69
2022/01/04 02:32:54;;;;;;;22.27;14.55;;;;;;;7.52;100.00;99668.06;5075023;28;20098;-70
2022/01/04 02:35:24;;;;;;;23.80;14.65;;;;;;;7.52;100.00;99662.75;5074551;28;20111;-70
2022/01/04 02:37:56;;;;;;;24.30;14.68;;;;;;;7.52;100.00;99673.34;5074932;28;20037;-70
2022/01/04 02:40:25;;;;;;;25.15;14.70;;;;;;;7.45;100.00;99682.63;5075037;28;20060;-70
2022/01/04 02:42:54;;;;;;;23.23;15.13;;;;;;;7.47;100.00;99681.59;5074901;28;20132;-70
2022/01/04 02:45:22;;;;;;;24.67;14.85;;;;;;;7.49;100.00;99678.84;5074521;28;20051;-70
2022/01/04 02:47:51;;;;;;;26.40;15.05;;;;;;;7.50;100.00;99688.50;5074886;28;20040;-70
2022/01/04 02:50:19;;;;;;;23.95;15.13;;;;;;;7.52;100.00;99677.81;5074274;28;20823;-69
2022/01/04 02:52:50;;;;;;;24.85;14.93;;;;;;;7.47;100.00;99672.78;5073597;28;20105;-70
2022/01/04 02:55:20;;;;;;;26.15;15.00;;;;;;;7.45;100.00;99670.22;5074149;28;20044;-70
2022/01/04 02:57:49;;;;;;;27.10;15.27;;;;;;;7.36;100.00;99665.44;5074366;28;20051;-71
2022/01/04 03:00:18;;;;;;;24.80;15.95;;;;;;;7.27;100.00;99673.91;5074392;28;20040;-71
2022/01/04 03:02:47;;;;;;;25.65;16.40;;;;;;;7.23;100.00;99672.34;5074634;28;20179;-70
2022/01/04 03:05:15;;;;;;;24.60;15.63;;;;;;;7.29;100.00;99661.41;5073905;28;20043;-71
2022/01/04 03:07:44;;;;;;;25.20;15.65;;;;;;;7.33;100.00;99662.94;5073148;28;20076;-70
2022/01/04 03:10:12;;;;;;;28.48;16.92;;;;;;;7.33;100.00;99654.97;5073836;28;20102;-70
2022/01/04 03:12:44;;;;;;;24.67;16.27;;;;;;;7.40;100.00;99645.72;5074475;28;20048;-70
2022/01/04 03:15:14;;;;;;;27.05;16.40;;;;;;;7.37;100.00;99653.00;5074075;28;20450;-71
2022/01/04 03:17:43;;;;;;;28.13;16.60;;;;;;;7.27;100.00;99643.88;5074297;28;20452;-70
2022/01/04 03:20:12;;;;;;;28.05;16.70;;;;;;;7.26;100.00;99640.34;5073946;28;20393;-71
2022/01/04 03:22:42;;;;;;;26.40;16.08;;;;;;;7.22;100.00;99638.81;5073966;28;20048;-70
2022/01/04 03:25:11;;;;;;;28.33;17.63;;;;;;;7.13;100.00;99634.00;5073704;28;20094;-70
2022/01/04 03:27:39;;;;;;;24.20;15.73;;;;;;;7.21;100.00;99622.97;5073557;28;20434;-71
2022/01/04 03:30:13;;;;;;;30.60;17.67;;;;;;;7.02;100.00;99616.03;5073799;28;20051;-71
2022/01/04 03:32:41;;;;;;;31.13;17.85;;;;;;;6.95;100.00;99624.41;5073749;28;20045;-71
2022/01/04 03:35:10;;;;;;;32.38;18.15;;;;;;;6.99;100.00;99624.19;5073299;28;20044;-71
2022/01/04 03:37:38;;;;;;;30.15;18.08;;;;;;;6.89;100.00;99626.47;5073981;28;20147;-70
2022/01/04 03:40:08;;;;;;;28.05;16.98;;;;;;;6.87;100.00;99612.47;5073591;28;20405;-70
2022/01/04 03:42:36;;;;;;;27.52;17.20;;;;;;;6.96;100.00;99599.66;5073828;28;20045;-70
2022/01/04 03:45:05;;;;;;;30.15;17.75;;;;;;;7.01;100.00;99592.28;5073392;28;20045;-71
2022/01/04 03:47:35;;;;;;;28.35;17.10;;;;;;;7.03;100.00;99596.53;5072976;28;20048;-70
2022/01/04 03:50:04;;;;;;;26.45;16.60;;;;;;;6.98;100.00;99597.75;5073416;28;20049;-74
2022/01/04 03:52:35;;;;;;;29.23;16.20;;;;;;;6.93;100.00;99595.34;5073658;28;20448;-70
2022/01/04 03:55:04;;;;;;;27.63;17.13;;;;;;;6.81;100.00;99596.88;5073571;28;20044;-73
2022/01/04 03:57:33;;;;;;;29.10;17.67;;;;;;;6.82;100.00;99601.25;5073555;28;20052;-70
2022/01/04 04:00:01;;;;;;;28.08;17.35;;;;;;;6.71;100.00;99595.69;5073542;28;20049;-70
2022/01/04 04:02:30;;;;;;;29.35;17.65;;;;;;;6.61;100.00;99597.13;5073370;28;20048;-70
2022/01/04 04:04:59;;;;;;;29.25;18.02;;;;;;;6.58;100.00;99584.91;5073650;28;20049;-70
2022/01/04 04:07:33;;;;;;;27.65;17.27;;;;;;;6.47;100.00;99579.34;5073562;28;20052;-70
2022/01/04 04:10:01;;;;;;;30.02;18.05;;;;;;;6.38;100.00;99582.47;5073400;28;20477;-70
2022/01/04 04:12:29;;;;;;;28.05;16.67;;;;;;;6.41;100.00;99578.78;5073101;28;20543;-70
2022/01/04 04:14:58;;;;;;;26.38;16.35;;;;;;;6.49;100.00;99579.25;5073017;28;20047;-70
2022/01/04 04:17:27;;;;;;;27.70;17.13;;;;;;;6.38;100.00;99574.53;5073000;28;20048;-71
2022/01/04 04:19:55;;;;;;;26.48;15.75;;;;;;;6.39;100.00;99564.78;5072986;28;20055;-70
2022/01/04 04:22:25;;;;;;;24.50;15.00;;;;;;;6.42;100.00;99569.91;5072926;28;20067;-70
2022/01/04 04:24:53;;;;;;;26.15;15.43;;;;;;;6.40;100.00;99574.44;5073172;28;20040;-70
2022/01/04 04:27:21;;;;;;;24.77;15.02;;;;;;;6.49;100.00;99573.94;5072751;28;20045;-70
2022/01/04 04:29:49;;;;;;;25.33;14.88;;;;;;;6.45;100.00;99572.38;5072781;28;20509;-70
2022/01/04 04:32:18;;;;;;;24.40;14.98;;;;;;;6.46;100.00;99560.84;5072818;28;20047;-71
2022/01/04 04:34:46;;;;;;;25.25;14.65;;;;;;;6.37;100.00;99558.69;5072699;28;20128;-71
2022/01/04 04:37:14;;;;;;;25.17;14.85;;;;;;;6.31;100.00;99559.91;5072778;28;20474;-71
2022/01/04 04:39:44;;;;;;;25.60;15.13;;;;;;;6.27;100.00;99559.22;5071250;28;20055;-71
2022/01/04 04:42:12;;;;;;;23.70;14.27;;;;;;;6.23;100.00;99556.78;5072668;28;20044;-71
2022/01/04 04:44:40;;;;;;;23.20;14.05;;;;;;;6.19;100.00;99549.97;5072618;28;20099;-71
2022/01/04 04:47:08;;;;;;;22.60;13.93;;;;;;;6.17;100.00;99546.50;5072591;28;20052;-71
2022/01/04 04:49:37;;;;;;;24.20;14.55;;;;;;;6.23;100.00;99565.59;5072885;28;20492;-71
2022/01/04 04:52:06;;;;;;;22.95;14.88;;;;;;;6.17;100.00;99557.97;5072963;28;20385;-71
2022/01/04 04:54:34;;;;;;;23.20;14.73;;;;;;;6.08;100.00;99555.84;5072710;28;20044;-70
2022/01/04 04:57:04;;;;;;;28.52;15.15;;;;;;;6.07;100.00;99546.16;5072882;28;20493;-70
2022/01/04 04:59:33;;;;;;;24.35;15.00;;;;;;;6.20;100.00;99547.22;5072313;28;20079;-70
2022/01/04 05:02:02;;;;;;;26.75;15.85;;;;;;;6.13;100.00;99540.53;5072810;28;20041;-70
2022/01/04 05:04:31;;;;;;;22.95;14.32;;;;;;;6.12;100.00;99533.53;5072575;28;20055;-71
2022/01/04 05:06:59;;;;;;;25.25;15.45;;;;;;;6.08;100.00;99533.75;5072304;28;20149;-71
2022/01/04 05:09:28;;;;;;;26.52;14.35;;;;;;;6.01;100.00;99535.91;5072427;28;20047;-71
2022/01/04 05:11:56;;;;;;;27.50;16.15;;;;;;;5.91;100.00;99547.91;5072725;28;20040;-71
2022/01/04 05:14:26;;;;;;;24.95;14.65;;;;;;;5.90;100.00;99538.22;5072052;28;20402;-71
2022/01/04 05:16:54;;;;;;;29.75;16.25;;;;;;;5.74;100.00;99528.44;5072633;28;20041;-71
2022/01/04 05:19:22;;;;;;;26.35;15.93;;;;;;;5.66;100.00;99530.59;5072281;28;20371;-70
2022/01/04 05:21:51;;;;;;;27.52;15.77;;;;;;;5.69;100.00;99530.47;5072605;28;20037;-70
2022/01/04 05:24:19;;;;;;;27.27;16.23;;;;;;;5.71;100.00;99530.38;5072222;28;20498;-70
2022/01/04 05:26:47;;;;;;;24.65;14.48;;;;;;;5.58;100.00;99527.50;5071336;28;20103;-71
2022/01/04 05:29:15;;;;;;;25.15;14.75;;;;;;;5.62;100.00;99531.72;5071988;28;20550;-70
2022/01/04 05:31:49;;;;;;;26.33;15.65;;;;;;;5.45;100.00;99529.06;5072677;28;20119;-70
2022/01/04 05:34:18;;;;;;;27.75;15.52;;;;;;;5.46;100.00;99522.84;5071860;28;20064;-70
2022/01/04 05:36:46;;;;;;;26.20;15.25;;;;;;;5.36;100.00;99527.75;5072542;28;20063;-70
2022/01/04 05:39:14;;;;;;;26.85;15.35;;;;;;;5.33;100.00;99524.41;5071838;28;20041;-71
2022/01/04 05:41:42;;;;;;;27.38;16.02;;;;;;;5.31;100.00;99518.34;5072088;28;20064;-70
2022/01/04 05:44:11;;;;;;;31.88;16.00;;;;;;;5.32;100.00;99515.63;5072339;28;20048;-74
2022/01/04 05:46:39;;;;;;;28.92;15.35;;;;;;;5.24;100.00;99511.63;5071905;28;20036;-70
2022/01/04 05:49:10;;;;;;;27.95;16.27;;;;;;;5.30;100.00;99500.72;5072292;28;20041;-70
2022/01/04 05:51:38;;;;;;;26.13;15.43;;;;;;;5.21;100.00;99503.84;5075330;28;20098;-70
2022/01/04 05:54:06;;;;;;;29.38;15.93;;;;;;;5.18;100.00;99504.84;5075490;28;20044;-70
2022/01/04 05:56:35;;;;;;;27.45;15.88;;;;;;;5.17;100.00;99490.78;5075449;28;20048;-70
2022/01/04 05:59:03;;;;;;;28.00;15.88;;;;;;;5.13;100.00;99481.31;5075419;28;20048;-70
2022/01/04 06:01:31;;;;;;;25.27;15.55;;;;;;;5.15;100.00;99481.22;5075464;28;20332;-70
2022/01/04 06:04:00;;;;;;;29.75;15.95;;;;;;;5.25;100.00;99495.69;5075738;28;20543;-70
2022/01/04 06:06:29;;;;;;;25.75;14.68;;;;;;;5.27;100.00;99490.31;5075330;28;20041;-70
2022/01/04 06:08:58;;;;;;;30.17;15.60;;;;;;;5.21;100.00;99477.41;5075605;28;20098;-70
2022/01/04 06:11:54;;;;;;;30.00;15.15;;;;;;;5.22;100.00;99474.72;5075083;28;20041;-69
2022/01/04 06:17:09;;;;;;;28.25;16.30;;;;;;;5.06;100.00;99476.41;5075105;28;20486;-70
2022/01/04 06:19:38;;;;;;;27.92;16.65;;;;;;;4.97;100.00;99483.00;5075303;28;20041;-70
2022/01/04 06:22:09;;;;;;;30.08;16.15;;;;;;;4.86;100.00;99486.16;5075244;28;20040;-70
2022/01/04 06:24:38;;;;;;;30.52;17.45;;;;;;;4.88;100.00;99478.16;5074959;28;20068;-70
2022/01/04 06:27:08;;;;;;;29.75;16.55;;;;;;;4.90;100.00;99489.50;5074725;28;20490;-70
2022/01/04 06:29:39;;;;;;;28.77;16.23;;;;;;;4.85;100.00;99488.88;5073576;28;20067;-69
2022/01/04 06:32:09;;;;;;;29.70;16.27;;;;;;;4.80;100.00;99481.16;5075134;28;20044;-69
2022/01/04 06:34:42;;;;;;;29.63;15.77;;;;;;;4.93;100.00;99473.53;5074388;28;20064;-70
2022/01/04 06:37:13;;;;;;;27.98;15.65;;;;;;;4.89;100.00;99478.06;5074767;28;20048;-70
2022/01/04 06:39:42;;;;;;;32.13;16.65;;;;;;;4.93;100.00;99476.16;5075146;28;20051;-70
2022/01/04 06:42:11;;;;;;;29.52;15.82;;;;;;;4.90;100.00;99465.72;5074993;28;20049;-70
2022/01/04 06:44:41;;;;;;;30.73;17.23;;;;;;;4.82;100.00;99458.16;5074472;28;20056;-71
2022/01/04 06:47:10;;;;;;;29.63;17.02;;;;;;;4.79;100.00;99458.31;5074398;28;20040;-70
2022/01/04 06:49:39;;;;;;;29.23;15.95;;;;;;;4.83;100.00;99448.47;5074204;28;20044;-71
2022/01/04 06:52:09;;;;;;;28.52;15.25;;;;;;;4.83;100.00;99438.75;5074810;28;20426;-70
2022/01/04 06:54:38;;;;;;;26.95;15.82;;;;;;;4.76;100.00;99441.78;5074111;28;20089;-70
2022/01/04 06:57:06;;;;;;;26.98;15.23;;;;;;;4.80;100.00;99435.41;5074541;28;20041;-70
2022/01/04 06:59:37;;;;;;;28.33;15.02;;;;;;;4.85;100.00;99436.03;5073820;28;20048;-70
2022/01/04 07:02:05;;;;;;;30.27;14.95;;;;;;;4.87;100.00;99439.47;5073327;28;20094;-70
2022/01/04 07:04:34;;;;;;;29.88;15.43;;;;;;;4.89;100.00;99433.16;5074363;28;20382;-70
2022/01/04 07:07:03;;;;;;;25.50;14.85;;;;;;;4.85;100.00;99423.69;5074555;28;20044;-69
2022/01/04 07:09:31;;;;;;;31.45;16.15;;;;;;;4.92;100.00;99421.56;5073606;28;20131;-70
2022/01/04 07:12:01;;;;;;;27.13;14.80;;;;;;;4.97;100.00;99430.13;5074133;28;20452;-69
2022/01/04 07:14:30;;;;;;;25.75;14.70;;;;;;;5.04;100.00;99430.69;5075120;28;20041;-69
2022/01/04 07:16:58;;;;;;;25.27;13.73;;;;;;;5.15;100.00;99447.72;5062173;28;20087;-69
2022/01/04 07:19:26;;;;;;;25.73;14.88;;;;;;;5.10;100.00;99452.38;5062199;28;20064;-71
2022/01/04 07:21:54;;;;;;;24.13;13.88;;;;;;;5.12;100.00;99458.44;5064182;28;20127;-70
2022/01/04 07:24:23;;;;;;;24.95;14.32;;;;;;;5.13;100.00;99462.81;5073500;28;20409;-71
2022/01/04 07:26:51;;;;;;;27.45;14.73;;;;;;;5.16;100.00;99457.34;5056368;28;20037;-68
2022/01/04 07:29:21;;;;;;;26.50;14.07;;;;;;;5.20;100.00;99459.84;5053928;28;20044;-69
2022/01/04 07:31:49;;;;;;;24.92;13.70;;;;;;;5.25;100.00;99455.19;5052353;28;20045;-69
2022/01/04 07:34:17;;;;;;;23.70;13.45;;;;;;;5.37;100.00;99459.84;5061717;28;20506;-68
2022/01/04 07:36:46;;;;;;;22.73;13.10;;;;;;;5.40;100.00;99457.03;5073671;28;20040;-68
2022/01/04 07:39:14;;;;;;;24.95;13.30;;;;;;;5.39;100.00;99448.22;5073943;28;20054;-69
2022/01/04 07:41:43;;;;;;;22.48;13.25;;;;;;;5.46;100.00;99459.34;5073602;28;20037;-69
2022/01/04 07:44:11;;;;;;;27.00;14.50;;;;;;;5.52;100.00;99456.41;5073817;28;20044;-69
2022/01/04 07:46:40;;;;;;;29.55;16.52;;;;;;;5.66;100.00;99451.22;5073617;28;20490;-69
2022/01/04 07:49:09;;;;;;;28.30;16.10;;;;;;;5.74;100.00;99438.47;5073627;28;20531;-69
2022/01/04 07:51:37;;;;;;;24.52;14.40;;;;;;;5.93;100.00;99426.91;5073716;28;20044;-69
2022/01/04 07:54:05;;;;;;;20.23;12.68;;;;;;;5.91;100.00;99419.06;5073330;28;20438;-69
2022/01/04 07:56:34;;;;;;;25.48;13.98;;;;;;;5.90;100.00;99416.47;5072225;28;20091;-68
2022/01/04 07:59:03;;;;;;;22.05;12.65;;;;;;;5.98;100.00;99408.97;5073636;28;20052;-70
2022/01/04 08:01:31;;;;;;;21.90;12.88;;;;;;;6.00;100.00;99407.13;5073389;28;20102;-70
2022/01/04 08:04:03;;;;;;;22.15;13.20;;;;;;;6.04;100.00;99403.34;5073645;28;20052;-71
2022/01/04 08:06:34;;;;;;;21.27;12.50;;;;;;;6.15;100.00;99394.81;5072785;28;20127;-71
2022/01/04 08:09:03;;;;;;;21.48;12.45;;;;;;;6.27;100.00;99394.13;5073212;28;20569;-71
2022/01/04 08:11:31;;;;;;;22.27;12.75;;;;;;;6.33;100.00;99391.16;5072833;28;20048;-72
2022/01/04 08:14:00;;;;;;;20.25;11.68;;;;;;;6.44;100.00;99385.22;5073239;28;20074;-71
2022/01/04 08:16:28;;;;;;;23.20;12.82;;;;;;;6.42;100.00;99371.22;5072985;28;20123;-71
2022/01/04 08:18:56;;;;;;;19.73;12.05;;;;;;;6.52;100.00;99373.25;5073334;28;20040;-71
2022/01/04 08:21:36;;;;;;;21.25;13.15;;;;;;;6.55;100.00;99356.31;5073302;28;20056;-71
2022/01/04 08:24:04;;;;;;;21.60;12.45;;;;;;;6.53;100.00;99361.72;5073480;28;20052;-71
2022/01/04 08:26:33;;;;;;;22.65;12.75;;;;;;;6.56;100.00;99369.50;5072942;28;20139;-72
2022/01/04 08:29:01;;;;;;;23.13;12.85;;;;;;;6.69;100.00;99369.66;5073017;28;20469;-71
2022/01/04 08:31:29;;;;;;;21.45;12.10;;;;;;;6.70;100.00;99360.75;5072997;28;20102;-73
2022/01/04 08:34:01;;;;;;;21.45;13.02;;;;;;;6.73;100.00;99363.22;5073017;28;20106;-70
2022/01/04 08:36:33;;;;;;;23.95;13.45;;;;;;;6.92;100.00;99364.78;5072083;28;20053;-70
2022/01/04 08:39:03;;;;;;;19.00;11.70;;;;;;;7.04;100.00;99364.03;5073052;28;20489;-70
2022/01/04 08:41:31;;;;;;;20.73;12.95;;;;;;;7.12;100.00;99362.63;5072707;28;20107;-70
2022/01/04 08:43:59;;;;;;;22.40;13.15;;;;;;;7.19;100.00;99360.47;5072936;28;20059;-71
2022/01/04 08:46:27;;;;;;;22.08;12.80;;;;;;;7.24;100.00;99382.28;5073032;28;20041;-72
2022/01/04 08:48:56;;;;;;;21.33;12.32;;;;;;;7.26;100.00;99375.09;5073067;28;20047;-71
2022/01/04 08:51:24;;;;;;;20.65;12.50;;;;;;;7.32;100.00;99373.84;5072762;28;20395;-71
2022/01/04 08:53:53;;;;;;;16.95;10.60;;;;;;;7.54;100.00;99352.19;5072587;28;20044;-71
2022/01/04 08:56:22;;;;;;;20.08;12.43;;;;;;;7.67;100.00;99353.13;5072812;28;20041;-71
2022/01/04 08:58:50;;;;;;;19.25;11.30;;;;;;;7.67;100.00;99347.81;5072508;28;20449;-71
2022/01/04 09:01:19;;;;;;;23.10;11.93;;;;;;;7.82;100.00;99352.16;5073080;28;20210;-71
2022/01/04 09:03:47;;;;;;;22.60;12.18;;;;;;;7.90;100.00;99344.53;5072915;28;20474;-72
2022/01/04 09:06:16;;;;;;;18.48;10.90;;;;;;;7.95;100.00;99341.63;5071560;28;20045;-71
2022/01/04 09:08:44;;;;;;;19.30;11.43;;;;;;;7.93;100.00;99325.78;5072509;28;20047;-71
2022/01/04 09:11:12;;;;;;;18.00;11.23;;;;;;;7.98;100.00;99330.78;5072950;28;20397;-71
2022/01/04 09:13:44;;;;;;;16.55;9.95;;;;;;;8.00;100.00;99328.88;5072528;28;20041;-71
2022/01/04 09:18:58;;;;;;;19.08;10.65;;;;;;;8.19;100.00;99325.88;5072367;28;20404;-71
2022/01/04 09:21:28;;;;;;;19.23;10.80;;;;;;;8.12;100.00;99316.63;5072777;28;20074;-71
2022/01/04 09:23:59;;;;;;;18.67;10.65;;;;;;;8.03;100.00;99313.63;5072370;28;20072;-71
2022/01/04 09:26:29;;;;;;;27.80;10.43;;;;;;;7.99;100.00;99322.72;5075359;28;20048;-71
2022/01/04 09:28:59;;;;;;;18.00;11.25;;;;;;;7.84;100.00;99313.09;5075896;28;20482;-71
2022/01/04 09:31:29;;;;;;;21.27;11.40;;;;;;;7.81;100.00;99300.00;5076309;28;20131;-71
2022/01/04 09:33:59;;;;;;;21.10;11.60;;;;;;;7.72;100.00;99282.00;5076158;28;20127;-71
2022/01/04 09:36:30;;;;;;;17.83;10.70;;;;;;;7.70;100.00;99290.06;5076114;28;20086;-71
2022/01/04 09:38:58;;;;;;;20.58;11.93;;;;;;;7.63;100.00;99287.91;5076090;28;20389;-71
2022/01/04 09:41:26;;;;;;;19.45;10.40;;;;;;;7.70;100.00;99284.75;5076055;28;20094;-71
2022/01/04 09:43:55;;;;;;;22.75;12.38;;;;;;;7.79;100.00;99278.00;5076035;28;20047;-71
2022/01/04 09:46:24;;;;;;;19.20;11.60;;;;;;;7.88;100.00;99272.09;5077069;28;20040;-71
2022/01/04 09:48:53;;;;;;;19.17;10.77;;;;;;;8.05;100.00;99268.38;5091613;28;20135;-71
2022/01/04 09:51:21;;;;;;;16.73;10.48;;;;;;;8.15;100.00;99264.16;5075850;28;20110;-71
2022/01/04 09:53:51;;;;;;;19.13;10.32;;;;;;;8.29;100.00;99263.22;5075848;28;20044;-71
2022/01/04 09:56:19;;;;;;;17.55;10.32;;;;;;;8.37;100.00;99245.00;5075945;28;20046;-71
2022/01/04 09:58:47;;;;;;;18.05;10.15;;;;;;;8.48;100.00;99229.19;5072251;28;20410;-69
2022/01/04 10:01:23;;;;;;;17.00;9.98;;;;;;;8.55;100.00;99217.19;5074791;28;20127;-72
2022/01/04 10:04:17;;;;;;;20.27;10.48;;;;;;;8.54;100.00;99211.97;5053853;28;20131;-70
2022/01/04 10:06:58;;;;;;;20.58;10.80;;;;;;;8.71;100.00;99202.84;5054655;28;20075;-73
2022/01/04 10:09:44;;;;;;;19.02;10.57;;;;;;;8.80;100.00;99196.91;5053488;28;20418;-71
2022/01/04 10:12:15;;;;;;;17.15;10.07;;;;;;;8.84;100.00;99203.69;5055176;28;20048;-70
2022/01/04 10:14:46;;;;;;;18.45;10.25;;;;;;;8.84;100.00;99201.03;5053462;28;20049;-72
2022/01/04 10:17:17;;;;;;;15.93;9.80;;;;;;;8.94;100.00;99183.47;5054993;28;20040;-72
2022/01/04 10:19:48;;;;;;;19.58;9.63;;;;;;;8.92;100.00;99174.75;5054533;28;20063;-71
2022/01/04 10:22:19;;;;;;;16.98;9.35;;;;;;;8.97;100.00;99177.94;5054893;28;20063;-72
2022/01/04 10:24:50;;;;;;;17.70;9.75;;;;;;;9.02;100.00;99188.25;5061137;28;20047;-76
2022/01/04 10:27:25;;;;;;;17.42;10.13;;;;;;;9.01;100.00;99195.41;5074483;28;20055;-73
2022/01/04 10:30:13;;;;;;;19.95;10.52;;;;;;;8.96;100.00;99196.66;5074387;28;20047;-72
2022/01/04 10:32:47;;;;;;;17.10;10.23;;;;;;;9.02;100.00;99189.13;5074457;28;20044;-71
2022/01/04 10:35:29;;;;;;;17.60;10.50;;;;;;;9.03;100.00;99184.66;5074707;28;20500;-69
2022/01/04 10:38:02;;;;;;;19.60;10.70;;;;;;;9.06;100.00;99177.28;5073999;28;20068;-71
2022/01/04 10:40:31;;;;;;;17.20;10.18;;;;;;;9.15;100.00;99167.81;5074054;28;20040;-72
2022/01/04 10:43:08;;;;;;;18.10;10.18;;;;;;;9.25;100.00;99160.00;5074246;28;20040;-71
2022/01/04 10:45:41;;;;;;;17.75;11.10;;;;;;;9.29;100.00;99150.88;5074434;28;20094;-72
2022/01/04 10:48:13;;;;;;;18.02;10.48;;;;;;;9.37;100.00;99149.34;5073956;28;20033;-72
2022/01/04 10:50:45;;;;;;;16.35;9.95;;;;;;;9.51;100.00;99153.66;5074636;28;20052;-71
2022/01/04 10:53:32;;;;;;;14.13;9.27;;;;;;;9.62;100.00;99153.72;5073738;28;20044;-71
2022/01/04 10:56:04;;;;;;;19.17;9.68;;;;;;;9.79;100.00;99155.13;5074009;28;20052;-71
2022/01/04 10:58:35;;;;;;;16.83;9.90;;;;;;;9.78;100.00;99157.91;5073511;28;20076;-71
2022/01/04 11:01:07;;;;;;;16.42;10.20;;;;;;;9.71;100.00;99147.72;5073846;28;20123;-71
2022/01/04 11:03:38;;;;;;;16.95;8.95;;;;;;;9.66;100.00;99133.91;5072693;28;20127;-70
2022/01/04 11:06:12;;;;;;;16.50;10.00;;;;;;;9.81;100.00;99131.06;5073736;28;20131;-71
2022/01/04 11:08:42;;;;;;;19.15;10.10;;;;;;;9.92;100.00;99118.63;5074010;28;20075;-70
2022/01/04 11:11:11;;;;;;;18.77;10.13;;;;;;;9.98;100.00;99112.00;5073402;28;20044;-71
2022/01/04 11:13:40;;;;;;;23.80;10.90;;;;;;;9.91;100.00;99111.59;5073652;28;20128;-71
2022/01/04 11:16:09;;;;;;;17.30;10.23;;;;;;;9.87;100.00;99114.63;5072919;28;20055;-71
2022/01/04 11:18:41;;;;;;;14.25;7.63;;;;;;;9.91;100.00;99100.09;5073668;28;20051;-71
2022/01/04 11:21:17;;;;;;;9.50;5.20;;;;;;;10.04;100.00;99092.91;5074189;28;20052;-70
2022/01/04 11:23:48;;;;;;;8.90;4.93;;;;;;;9.94;100.00;99102.50;5073501;28;20093;-72
2022/01/04 11:26:18;;;;;;;9.55;5.07;;;;;;;9.92;100.00;99093.81;5072891;28;20045;-71
2022/01/04 11:28:48;;;;;;;8.43;4.75;;;;;;;9.94;100.00;99073.22;5073265;28;20436;-74
2022/01/04 11:31:26;;;;;;;9.55;4.78;;;;;;;10.04;100.00;99074.25;5073033;28;20044;-71
2022/01/04 11:34:00;;;;;;;8.65;4.82;;;;;;;10.02;100.00;99066.34;5073095;28;20414;-71
2022/01/04 11:36:35;;;;;;;9.85;4.93;;;;;;;10.02;100.00;99065.50;5073072;28;20064;-73
2022/01/04 11:39:03;;;;;;;9.63;5.07;;;;;;;10.06;100.00;99053.66;5073247;28;20041;-74